Time;durP1;ratioP1;P1;durP2;ratioP2;P2;SDS_P1;SDS_P2;PMS_P1;PMS_P2;Temp;Humidity;BMP_temperature;BMP_pressure;BME280_temperature;BME280_humidity;BME280_pressure;Samples;Min_cycle;Max_cycle;Signal;HPM_P1;HPM_P2
2023/04/26 00:01:59;;;;;;;;;;;4.90;99.90;;;;;;5042041;28;19913;-64
2023/04/26 00:04:27;;;;;;;;;;;5.00;99.90;;;;;;5047343;28;19913;-64
2023/04/26 00:06:53;;;;;;;;;;;5.00;99.90;;;;;;5040802;28;19974;-63
2023/04/26 00:09:19;;;;;;;;;;;5.00;99.90;;;;;;5022714;28;19914;-64
2023/04/26 00:11:44;;;;;;;;;;;5.00;99.90;;;;;;5040788;28;19920;-64
2023/04/26 00:14:10;;;;;;;;;;;5.00;99.90;;;;;;5047453;28;20455;-64
2023/04/26 00:16:36;;;;;;;;;;;5.00;99.90;;;;;;5039638;28;19913;-64
2023/04/26 00:19:01;;;;;;;;;;;5.00;99.90;;;;;;5040925;28;19913;-64
2023/04/26 00:21:27;;;;;;;;;;;5.00;99.90;;;;;;5046771;28;19913;-64
2023/04/26 00:23:53;;;;;;;;;;;5.00;99.90;;;;;;5034729;28;20293;-64
2023/04/26 00:26:19;;;;;;;;;;;5.00;99.90;;;;;;5044463;28;19963;-65
2023/04/26 00:28:45;;;;;;;;;;;4.90;99.90;;;;;;5049369;28;19917;-65
2023/04/26 00:31:14;;;;;;;;;;;4.90;99.90;;;;;;5037784;28;19913;-65
2023/04/26 00:33:39;;;;;;;;;;;4.80;99.90;;;;;;5047070;28;19917;-65
2023/04/26 00:36:05;;;;;;;;;;;4.90;99.90;;;;;;5042353;28;19917;-65
2023/04/26 00:38:31;;;;;;;;;;;4.90;99.90;;;;;;5038674;28;20274;-66
2023/04/26 00:40:56;;;;;;;;;;;4.80;99.90;;;;;;5039839;28;20373;-65
2023/04/26 00:43:22;;;;;;;;;;;4.70;99.90;;;;;;5045671;28;20008;-65
2023/04/26 00:45:48;;;;;;;;;;;4.60;99.90;;;;;;5039457;28;19975;-65
2023/04/26 00:48:14;;;;;;;;;;;4.50;99.90;;;;;;5040966;28;20280;-65
2023/04/26 00:50:40;;;;;;;;;;;4.50;99.90;;;;;;5047446;28;20299;-65
2023/04/26 00:53:07;;;;;;;;;;;4.50;99.90;;;;;;5041934;28;19913;-65
2023/04/26 00:55:33;;;;;;;;;;;4.50;99.90;;;;;;5038944;28;19913;-59
2023/04/26 00:57:58;;;;;;;;;;;4.50;99.90;;;;;;5040278;28;19959;-65
2023/04/26 01:00:24;;;;;;;;;;;4.50;99.90;;;;;;5045347;28;19912;-64
2023/04/26 01:02:50;;;;;;;;;;;4.60;99.90;;;;;;5039332;28;19919;-64
2023/04/26 01:05:16;;;;;;;;;;;4.60;99.90;;;;;;5039496;28;19913;-66
2023/04/26 01:07:42;;;;;;;;;;;4.60;99.90;;;;;;5047773;28;19913;-64
2023/04/26 01:10:08;;;;;;;;;;;4.70;99.90;;;;;;5033317;28;19920;-64
2023/04/26 01:12:35;;;;;;;;;;;4.70;99.90;;;;;;5027310;28;19938;-64
2023/04/26 01:15:01;;;;;;;;;;;4.70;99.90;;;;;;5040729;28;19921;-63
2023/04/26 01:17:27;;;;;;;;;;;4.80;99.90;;;;;;5037514;28;19917;-65
2023/04/26 01:19:52;;;;;;;;;;;4.80;99.90;;;;;;5040127;28;19919;-64
2023/04/26 01:22:18;;;;;;;;;;;4.80;99.90;;;;;;5044600;28;19912;-64
2023/04/26 01:24:45;;;;;;;;;;;4.80;99.90;;;;;;5039450;28;20281;-64
2023/04/26 01:27:11;;;;;;;;;;;4.80;99.90;;;;;;5037292;28;19913;-64
2023/04/26 01:29:36;;;;;;;;;;;4.80;99.90;;;;;;5044274;28;19917;-65
2023/04/26 01:32:02;;;;;;;;;;;4.80;99.90;;;;;;5031539;28;19916;-64
2023/04/26 01:34:28;;;;;;;;;;;4.90;99.90;;;;;;5045206;28;19928;-65
2023/04/26 01:36:53;;;;;;;;;;;4.90;99.90;;;;;;5038209;28;20492;-63
2023/04/26 01:39:19;;;;;;;;;;;5.00;99.90;;;;;;5038176;28;19913;-65
2023/04/26 01:41:45;;;;;;;;;;;5.10;99.90;;;;;;5038537;28;19913;-64
2023/04/26 01:44:10;;;;;;;;;;;5.10;99.90;;;;;;5043251;28;20008;-64
2023/04/26 01:46:36;;;;;;;;;;;5.10;99.90;;;;;;5045675;28;19917;-64
2023/04/26 01:49:02;;;;;;;;;;;5.10;99.90;;;;;;5039807;28;19913;-64
2023/04/26 01:51:27;;;;;;;;;;;5.10;99.90;;;;;;5036889;28;19952;-65
2023/04/26 01:53:53;;;;;;;;;;;5.10;99.90;;;;;;5039114;28;19917;-65
2023/04/26 01:56:20;;;;;;;;;;;5.10;99.90;;;;;;5042636;28;19913;-65
2023/04/26 01:58:46;;;;;;;;;;;5.10;99.90;;;;;;5038262;28;19919;-64
2023/04/26 02:01:11;;;;;;;;;;;5.10;99.90;;;;;;5037123;28;20011;-64
2023/04/26 02:03:37;;;;;;;;;;;5.10;99.90;;;;;;5042884;28;19913;-64
2023/04/26 02:06:03;;;;;;;;;;;5.10;99.90;;;;;;5038967;28;20011;-64
2023/04/26 02:08:29;;;;;;;;;;;5.20;99.90;;;;;;5036435;28;19936;-64
2023/04/26 02:10:54;;;;;;;;;;;5.30;99.90;;;;;;5038287;28;19920;-63
2023/04/26 02:13:20;;;;;;;;;;;5.30;99.90;;;;;;5043065;28;20312;-64
2023/04/26 02:15:46;;;;;;;;;;;5.20;99.90;;;;;;5039031;28;19955;-64
2023/04/26 02:18:12;;;;;;;;;;;5.30;99.90;;;;;;5037132;28;20369;-63
2023/04/26 02:20:42;;;;;;;;;;;5.30;99.90;;;;;;5045289;28;19913;-64
2023/04/26 02:23:08;;;;;;;;;;;5.30;99.90;;;;;;5039835;28;20050;-63
2023/04/26 02:25:33;;;;;;;;;;;5.30;99.90;;;;;;5036366;28;19956;-62
2023/04/26 02:27:59;;;;;;;;;;;5.30;99.90;;;;;;5038489;28;20004;-64
2023/04/26 02:30:24;;;;;;;;;;;5.30;99.90;;;;;;5043431;28;19948;-64
2023/04/26 02:32:52;;;;;;;;;;;5.30;99.90;;;;;;5037461;28;19959;-63
2023/04/26 02:35:17;;;;;;;;;;;5.40;99.90;;;;;;5037557;28;19967;-64
2023/04/26 02:37:43;;;;;;;;;;;5.50;99.90;;;;;;5045968;28;19955;-65
2023/04/26 02:40:09;;;;;;;;;;;5.60;99.90;;;;;;5031680;28;19913;-64
2023/04/26 02:42:35;;;;;;;;;;;5.70;99.90;;;;;;5042986;28;19929;-64
2023/04/26 02:45:00;;;;;;;;;;;5.70;99.90;;;;;;5038408;28;20019;-64
2023/04/26 02:47:26;;;;;;;;;;;5.80;99.90;;;;;;5035362;28;20403;-65
2023/04/26 02:49:52;;;;;;;;;;;5.80;99.90;;;;;;5039196;28;19913;-64
2023/04/26 02:52:17;;;;;;;;;;;5.80;99.90;;;;;;5042279;28;19956;-65
2023/04/26 02:54:43;;;;;;;;;;;5.80;99.90;;;;;;5037775;28;19921;-64
2023/04/26 02:57:08;;;;;;;;;;;5.90;99.90;;;;;;5035908;28;20023;-65
2023/04/26 02:59:34;;;;;;;;;;;5.90;99.90;;;;;;5043362;28;19913;-64
2023/04/26 03:01:59;;;;;;;;;;;5.90;99.90;;;;;;5038087;28;19920;-64
2023/04/26 03:04:25;;;;;;;;;;;6.00;99.90;;;;;;5036247;28;20277;-64
2023/04/26 03:06:50;;;;;;;;;;;6.00;99.90;;;;;;5044464;28;19960;-63
2023/04/26 03:09:16;;;;;;;;;;;6.00;99.90;;;;;;5034346;28;19913;-64
2023/04/26 03:11:42;;;;;;;;;;;6.10;99.90;;;;;;5042260;28;19921;-64
2023/04/26 03:14:07;;;;;;;;;;;6.10;99.90;;;;;;5048191;28;19929;-64
2023/04/26 03:16:39;;;;;;;;;;;6.10;99.90;;;;;;5039852;28;19919;-64
2023/04/26 03:19:05;;;;;;;;;;;6.10;99.90;;;;;;5041251;28;20380;-64
2023/04/26 03:21:31;;;;;;;;;;;6.10;99.90;;;;;;5047622;28;19909;-64
2023/04/26 03:23:56;;;;;;;;;;;6.20;99.90;;;;;;5041591;28;20279;-65
2023/04/26 03:26:22;;;;;;;;;;;6.20;99.90;;;;;;5039935;28;19984;-64
2023/04/26 03:28:47;;;;;;;;;;;6.30;99.90;;;;;;5042833;28;19920;-63
2023/04/26 03:31:13;;;;;;;;;;;6.40;99.90;;;;;;5045109;28;20379;-64
2023/04/26 03:33:38;;;;;;;;;;;6.40;99.90;;;;;;5040687;28;20331;-64
2023/04/26 03:36:05;;;;;;;;;;;6.40;99.90;;;;;;5041011;28;19963;-64
2023/04/26 03:38:30;;;;;;;;;;;6.40;99.90;;;;;;5046973;28;19913;-64
2023/04/26 03:40:56;;;;;;;;;;;6.50;99.90;;;;;;5040885;28;19913;-64
2023/04/26 03:43:21;;;;;;;;;;;6.50;99.90;;;;;;5040170;28;20250;-64
2023/04/26 03:45:48;;;;;;;;;;;6.50;99.90;;;;;;5043797;28;19929;-64
2023/04/26 03:48:13;;;;;;;;;;;6.50;99.90;;;;;;5044773;28;19917;-64
2023/04/26 03:50:39;;;;;;;;;;;6.50;99.90;;;;;;5037559;28;20258;-65
2023/04/26 03:53:05;;;;;;;;;;;6.50;99.90;;;;;;5039583;28;19914;-64
2023/04/26 03:55:30;;;;;;;;;;;6.50;99.90;;;;;;5045177;28;20396;-63
2023/04/26 03:57:56;;;;;;;;;;;6.50;99.90;;;;;;5039475;28;19919;-64
2023/04/26 04:00:22;;;;;;;;;;;6.40;99.90;;;;;;5039775;28;20254;-64
2023/04/26 04:02:47;;;;;;;;;;;6.40;99.90;;;;;;5048993;28;19963;-64
2023/04/26 04:05:13;;;;;;;;;;;6.30;99.90;;;;;;5036256;28;19912;-64
2023/04/26 04:07:39;;;;;;;;;;;6.30;99.90;;;;;;5039919;28;20329;-64
2023/04/26 04:10:04;;;;;;;;;;;6.20;99.90;;;;;;5034265;28;19936;-64
2023/04/26 04:12:30;;;;;;;;;;;6.20;99.90;;;;;;5046212;28;19944;-64
2023/04/26 04:14:56;;;;;;;;;;;6.20;99.90;;;;;;5040228;28;19960;-63
2023/04/26 04:17:22;;;;;;;;;;;6.20;99.90;;;;;;5034653;28;19913;-65
2023/04/26 04:19:47;;;;;;;;;;;6.10;99.90;;;;;;5042499;28;19920;-65
2023/04/26 04:22:13;;;;;;;;;;;6.10;99.90;;;;;;5043580;28;20372;-64
2023/04/26 04:24:41;;;;;;;;;;;6.10;99.90;;;;;;5039712;28;19913;-63
2023/04/26 04:27:06;;;;;;;;;;;6.10;99.90;;;;;;5038267;28;19919;-64
2023/04/26 04:29:32;;;;;;;;;;;6.20;99.90;;;;;;5046144;28;20007;-63
2023/04/26 04:31:58;;;;;;;;;;;6.30;99.90;;;;;;5040074;28;19913;-63
2023/04/26 04:34:25;;;;;;;;;;;6.40;99.90;;;;;;5038680;28;19921;-63
2023/04/26 04:36:50;;;;;;;;;;;6.40;99.90;;;;;;5041442;28;20384;-64
2023/04/26 04:39:16;;;;;;;;;;;6.40;99.90;;;;;;5045344;28;19912;-63
2023/04/26 04:41:48;;;;;;;;;;;6.40;99.90;;;;;;5037670;28;19913;-64
2023/04/26 04:44:17;;;;;;;;;;;6.40;99.90;;;;;;5036282;28;19925;-64
2023/04/26 04:46:42;;;;;;;;;;;6.40;99.90;;;;;;5039569;28;20005;-65
2023/04/26 04:49:10;;;;;;;;;;;6.40;99.90;;;;;;5038963;28;19952;-65
2023/04/26 04:51:35;;;;;;;;;;;6.40;99.90;;;;;;5046573;28;19912;-64
2023/04/26 04:54:15;;;;;;;;;;;6.40;99.90;;;;;;5040567;28;19990;-64
2023/04/26 04:56:41;;;;;;;;;;;6.40;99.90;;;;;;5035754;28;19920;-64
2023/04/26 04:59:07;;;;;;;;;;;6.40;99.90;;;;;;5038301;28;20296;-65
2023/04/26 05:01:33;;;;;;;;;;;6.40;99.90;;;;;;5045874;28;19913;-64
2023/04/26 05:03:59;;;;;;;;;;;6.40;99.90;;;;;;5039832;28;19920;-64
2023/04/26 05:06:26;;;;;;;;;;;6.40;99.90;;;;;;5038228;28;19914;-65
2023/04/26 05:08:52;;;;;;;;;;;6.40;99.90;;;;;;5040293;28;19913;-64
2023/04/26 05:11:18;;;;;;;;;;;6.40;99.90;;;;;;5043418;28;19936;-64
2023/04/26 05:13:44;;;;;;;;;;;6.60;99.90;;;;;;5039302;28;19927;-64
2023/04/26 05:16:10;;;;;;;;;;;6.70;99.90;;;;;;5038248;28;20434;-64
2023/04/26 05:18:36;;;;;;;;;;;6.80;99.90;;;;;;5043425;28;19917;-65
2023/04/26 05:21:01;;;;;;;;;;;6.80;99.90;;;;;;5039435;28;19950;-65
2023/04/26 05:23:27;;;;;;;;;;;6.90;99.90;;;;;;5037297;28;19999;-64
2023/04/26 05:25:52;;;;;;;;;;;6.90;99.90;;;;;;5039053;28;19913;-64
2023/04/26 05:28:18;;;;;;;;;;;6.90;99.90;;;;;;5043142;28;19913;-66
2023/04/26 05:30:44;;;;;;;;;;;7.00;99.90;;;;;;5034925;28;19920;-64
2023/04/26 05:33:10;;;;;;;;;;;7.00;99.90;;;;;;5044518;28;19917;-64
2023/04/26 05:35:35;;;;;;;;;;;7.10;99.90;;;;;;5037314;28;20328;-64
2023/04/26 05:38:01;;;;;;;;;;;7.20;99.90;;;;;;5039192;28;19914;-64
2023/04/26 05:40:26;;;;;;;;;;;7.30;99.90;;;;;;5043547;28;20482;-64
2023/04/26 05:42:52;;;;;;;;;;;7.40;99.90;;;;;;5037893;28;19942;-64
2023/04/26 05:45:18;;;;;;;;;;;7.40;99.90;;;;;;5039829;28;20000;-64
2023/04/26 05:47:43;;;;;;;;;;;7.50;99.90;;;;;;5043027;28;19914;-63
2023/04/26 05:50:09;;;;;;;;;;;7.60;99.90;;;;;;5039888;28;19974;-64
2023/04/26 05:52:35;;;;;;;;;;;7.60;99.90;;;;;;5035898;28;19913;-65
2023/04/26 05:55:03;;;;;;;;;;;7.60;99.90;;;;;;5037937;28;20361;-65
2023/04/26 05:57:28;;;;;;;;;;;7.70;99.90;;;;;;5041782;28;19966;-64
2023/04/26 05:59:54;;;;;;;;;;;7.70;99.90;;;;;;5037692;28;19912;-65
2023/04/26 06:02:19;;;;;;;;;;;7.80;99.90;;;;;;5037543;28;19913;-64
2023/04/26 06:04:45;;;;;;;;;;;7.90;99.90;;;;;;5046316;28;19920;-64
2023/04/26 06:07:11;;;;;;;;;;;7.90;99.90;;;;;;5031991;28;19919;-63
2023/04/26 06:09:36;;;;;;;;;;;7.90;99.90;;;;;;5043666;28;20359;-65
2023/04/26 06:12:02;;;;;;;;;;;8.00;99.90;;;;;;5039895;28;19916;-64
2023/04/26 06:14:28;;;;;;;;;;;8.00;99.90;;;;;;5035758;28;19929;-64
2023/04/26 06:16:54;;;;;;;;;;;8.10;99.90;;;;;;5039183;28;20300;-64
2023/04/26 06:19:20;;;;;;;;;;;8.10;99.90;;;;;;5042590;28;20237;-64
2023/04/26 06:21:47;;;;;;;;;;;8.20;99.90;;;;;;5034179;28;19913;-65
2023/04/26 06:24:13;;;;;;;;;;;8.30;99.90;;;;;;5044675;28;19979;-65
2023/04/26 06:26:39;;;;;;;;;;;8.30;99.90;;;;;;5040095;28;20011;-65
2023/04/26 06:29:04;;;;;;;;;;;8.30;99.90;;;;;;5039335;28;20006;-65
2023/04/26 06:31:30;;;;;;;;;;;8.40;99.90;;;;;;5035633;28;19914;-65
2023/04/26 06:33:56;;;;;;;;;;;8.40;99.90;;;;;;5044477;28;19965;-64
2023/04/26 06:36:21;;;;;;;;;;;8.40;99.90;;;;;;5034482;28;19935;-64
2023/04/26 06:38:47;;;;;;;;;;;8.40;99.90;;;;;;5023766;28;20055;-64
2023/04/26 06:41:13;;;;;;;;;;;8.50;99.90;;;;;;5039240;28;19912;-64
2023/04/26 06:43:39;;;;;;;;;;;8.60;99.90;;;;;;5037014;28;19913;-64
2023/04/26 06:46:04;;;;;;;;;;;8.60;99.90;;;;;;5040856;28;20336;-63
2023/04/26 06:48:30;;;;;;;;;;;8.70;99.90;;;;;;5047672;28;20311;-66
2023/04/26 06:50:55;;;;;;;;;;;8.80;99.90;;;;;;5035508;28;20383;-64
2023/04/26 06:53:21;;;;;;;;;;;8.80;99.90;;;;;;5049232;28;19913;-66
2023/04/26 06:55:47;;;;;;;;;;;8.90;99.90;;;;;;5041237;28;20341;-65
2023/04/26 06:58:12;;;;;;;;;;;8.90;99.90;;;;;;5040236;28;19913;-65
2023/04/26 07:00:38;;;;;;;;;;;8.90;99.90;;;;;;5048482;28;19974;-67
2023/04/26 07:03:04;;;;;;;;;;;8.80;99.90;;;;;;5042651;28;19919;-64
2023/04/26 07:05:30;;;;;;;;;;;8.80;99.90;;;;;;5039350;28;19913;-64
2023/04/26 07:07:55;;;;;;;;;;;8.80;99.90;;;;;;5041598;28;20365;-66
2023/04/26 07:10:21;;;;;;;;;;;8.70;99.90;;;;;;5046061;28;19924;-65
2023/04/26 07:12:46;;;;;;;;;;;8.70;99.90;;;;;;5040854;28;19968;-65
2023/04/26 07:15:12;;;;;;;;;;;8.90;99.90;;;;;;5039586;28;20003;-66
2023/04/26 07:17:37;;;;;;;;;;;8.80;99.90;;;;;;5045535;28;19963;-65
2023/04/26 07:20:04;;;;;;;;;;;8.90;99.90;;;;;;5041973;28;19958;-65
2023/04/26 07:22:30;;;;;;;;;;;8.90;99.90;;;;;;5038956;28;20262;-66
2023/04/26 07:24:55;;;;;;;;;;;9.00;99.90;;;;;;5041514;28;20360;-66
2023/04/26 07:27:21;;;;;;;;;;;9.10;99.90;;;;;;5044183;28;20015;-65
2023/04/26 07:29:46;;;;;;;;;;;9.20;99.90;;;;;;5040774;28;19919;-65
2023/04/26 07:32:12;;;;;;;;;;;9.20;99.90;;;;;;5039848;28;19917;-66
2023/04/26 07:34:38;;;;;;;;;;;9.30;99.90;;;;;;5045360;28;19964;-66
2023/04/26 07:37:03;;;;;;;;;;;9.30;99.90;;;;;;5041657;28;19999;-65
2023/04/26 07:39:29;;;;;;;;;;;9.40;99.90;;;;;;5038992;28;19978;-66
2023/04/26 07:41:54;;;;;;;;;;;9.60;99.90;;;;;;5040812;28;19940;-65
2023/04/26 07:44:21;;;;;;;;;;;9.50;99.90;;;;;;5045007;28;19917;-64
2023/04/26 07:46:46;;;;;;;;;;;9.50;99.90;;;;;;5036388;28;20453;-66
2023/04/26 07:49:12;;;;;;;;;;;9.60;99.90;;;;;;5029736;28;20000;-65
2023/04/26 07:51:40;;;;;;;;;;;9.60;99.90;;;;;;5039576;28;20321;-65
2023/04/26 07:54:05;;;;;;;;;;;9.70;99.90;;;;;;5040384;28;20301;-65
2023/04/26 07:56:31;;;;;;;;;;;9.70;99.90;;;;;;5045426;28;20371;-66
2023/04/26 07:58:56;;;;;;;;;;;9.70;99.90;;;;;;5040892;28;19920;-65
2023/04/26 08:01:22;;;;;;;;;;;9.90;99.90;;;;;;5039678;28;19920;-65
2023/04/26 08:03:47;;;;;;;;;;;9.80;99.90;;;;;;5043543;28;19921;-65
2023/04/26 08:06:13;;;;;;;;;;;9.90;99.90;;;;;;5042351;28;20383;-65
2023/04/26 08:08:44;;;;;;;;;;;9.80;99.90;;;;;;5037274;28;19924;-64
2023/04/26 08:11:10;;;;;;;;;;;9.90;99.90;;;;;;5038994;28;20431;-66
2023/04/26 08:13:35;;;;;;;;;;;9.90;99.90;;;;;;5044892;28;19913;-66
2023/04/26 08:16:01;;;;;;;;;;;9.80;99.90;;;;;;5040749;28;19916;-66
2023/04/26 08:18:27;;;;;;;;;;;9.80;99.90;;;;;;5038680;28;19913;-66
2023/04/26 08:20:54;;;;;;;;;;;9.80;99.90;;;;;;5040772;28;20365;-66
2023/04/26 08:23:20;;;;;;;;;;;9.80;99.90;;;;;;5044689;28;19920;-66
2023/04/26 08:25:46;;;;;;;;;;;9.80;99.90;;;;;;5036793;28;20353;-66
2023/04/26 08:28:13;;;;;;;;;;;9.70;99.90;;;;;;5038741;28;19920;-65
2023/04/26 08:30:39;;;;;;;;;;;9.70;99.90;;;;;;5046964;28;19913;-65
2023/04/26 08:33:05;;;;;;;;;;;9.80;99.90;;;;;;5041399;28;19919;-67
2023/04/26 08:35:31;;;;;;;;;;;9.90;99.90;;;;;;5037845;28;20004;-66
2023/04/26 08:37:57;;;;;;;;;;;10.00;99.90;;;;;;5040315;28;20321;-65
2023/04/26 08:40:23;;;;;;;;;;;10.10;99.90;;;;;;5044802;28;19963;-65
2023/04/26 08:42:51;;;;;;;;;;;10.10;99.90;;;;;;5026507;28;20364;-65
2023/04/26 08:45:17;;;;;;;;;;;10.30;99.90;;;;;;5039577;28;19944;-65
2023/04/26 08:48:02;;;;;;;;;;;10.20;99.90;;;;;;5047130;28;20284;-65
2023/04/26 08:50:28;;;;;;;;;;;10.20;99.90;;;;;;5038333;28;19917;-65
2023/04/26 08:52:54;;;;;;;;;;;10.20;99.90;;;;;;5039265;28;20375;-65
2023/04/26 08:55:20;;;;;;;;;;;10.10;99.90;;;;;;5038670;28;20007;-64
2023/04/26 08:57:47;;;;;;;;;;;10.10;99.90;;;;;;5042575;28;20280;-65
2023/04/26 09:00:13;;;;;;;;;;;10.20;99.90;;;;;;5041199;28;19939;-65
2023/04/26 09:02:40;;;;;;;;;;;10.30;99.90;;;;;;5036284;28;19913;-65
2023/04/26 09:05:06;;;;;;;;;;;10.30;99.90;;;;;;5038323;28;19931;-65
2023/04/26 09:07:36;;;;;;;;;;;10.50;99.90;;;;;;5045242;28;19924;-65
2023/04/26 09:10:03;;;;;;;;;;;10.70;99.90;;;;;;5039131;28;19913;-66
2023/04/26 09:12:28;;;;;;;;;;;10.90;99.90;;;;;;5038864;28;19917;-65
2023/04/26 09:14:55;;;;;;;;;;;11.10;99.90;;;;;;5040400;28;20385;-66
2023/04/26 09:17:35;;;;;;;;;;;11.20;99.90;;;;;;5039101;28;19913;-65
2023/04/26 09:20:05;;;;;;;;;;;11.20;99.90;;;;;;5039273;28;19916;-65
2023/04/26 09:22:30;;;;;;;;;;;11.20;99.90;;;;;;5036988;28;20300;-65
2023/04/26 09:24:56;;;;;;;;;;;11.40;99.90;;;;;;5038961;28;19913;-65
2023/04/26 09:27:30;;;;;;;;;;;11.50;99.90;;;;;;5042375;28;19917;-65
2023/04/26 09:29:57;;;;;;;;;;;11.50;99.90;;;;;;5038298;28;20369;-66
2023/04/26 09:32:23;;;;;;;;;;;11.40;99.90;;;;;;5037843;28;19920;-65
2023/04/26 09:34:49;;;;;;;;;;;11.40;99.90;;;;;;5040722;28;19921;-66
2023/04/26 09:37:15;;;;;;;;;;;11.50;99.90;;;;;;5042303;28;19935;-66
2023/04/26 09:39:41;;;;;;;;;;;11.60;99.90;;;;;;5034849;28;19951;-66
2023/04/26 09:42:07;;;;;;;;;;;11.60;99.90;;;;;;5036914;28;19989;-66
2023/04/26 09:44:33;;;;;;;;;;;11.50;99.90;;;;;;5044477;28;19917;-66
2023/04/26 09:47:00;;;;;;;;;;;11.50;99.90;;;;;;5038933;28;19913;-65
2023/04/26 09:49:26;;;;;;;;;;;11.40;99.90;;;;;;5037118;28;19913;-65
2023/04/26 09:52:05;;;;;;;;;;;11.30;99.90;;;;;;5045000;28;20272;-64
2023/04/26 09:54:36;;;;;;;;;;;11.20;99.90;;;;;;5035870;28;20011;-65
2023/04/26 09:57:02;;;;;;;;;;;11.20;99.90;;;;;;5036257;28;20083;-65
2023/04/26 09:59:38;;;;;;;;;;;11.20;99.90;;;;;;5045133;28;19980;-65
2023/04/26 10:02:03;;;;;;;;;;;11.40;99.90;;;;;;5038995;28;19920;-65
2023/04/26 10:04:30;;;;;;;;;;;11.50;99.90;;;;;;5036559;28;19984;-65
2023/04/26 10:06:56;;;;;;;;;;;11.50;99.90;;;;;;5037448;28;19917;-65
2023/04/26 10:09:22;;;;;;;;;;;11.40;99.90;;;;;;5042660;28;19913;-66
2023/04/26 10:11:48;;;;;;;;;;;11.30;99.90;;;;;;5038125;28;20347;-66
2023/04/26 10:14:14;;;;;;;;;;;11.40;99.90;;;;;;5036763;28;19925;-65
2023/04/26 10:16:40;;;;;;;;;;;11.30;99.90;;;;;;5045110;28;19913;-64
2023/04/26 10:19:06;;;;;;;;;;;11.30;99.90;;;;;;5038680;28;19913;-65
2023/04/26 10:21:34;;;;;;;;;;;11.30;99.90;;;;;;5036152;28;19920;-65
2023/04/26 10:24:00;;;;;;;;;;;11.40;99.90;;;;;;5037861;28;19995;-65
2023/04/26 10:26:44;;;;;;;;;;;11.30;99.90;;;;;;5042889;28;20021;-65
2023/04/26 10:29:10;;;;;;;;;;;11.40;99.90;;;;;;5031609;28;19921;-65
2023/04/26 10:31:54;;;;;;;;;;;11.70;99.90;;;;;;5043379;28;20009;-66
2023/04/26 10:34:20;;;;;;;;;;;11.90;99.90;;;;;;5042367;28;19916;-65
2023/04/26 10:37:05;;;;;;;;;;;12.00;99.90;;;;;;5033597;28;19913;-66
2023/04/26 10:39:30;;;;;;;;;;;12.00;99.90;;;;;;5021286;28;19913;-66
2023/04/26 10:42:17;;;;;;;;;;;12.40;99.90;;;;;;5035692;28;19920;-65
2023/04/26 10:44:44;;;;;;;;;;;12.60;99.90;;;;;;5042006;28;19922;-65
2023/04/26 10:47:20;;;;;;;;;;;12.90;99.90;;;;;;5044335;28;19982;-65
2023/04/26 10:49:47;;;;;;;;;;;13.00;99.90;;;;;;5037521;28;19920;-66
2023/04/26 10:52:14;;;;;;;;;;;13.00;99.90;;;;;;5036597;28;19913;-66
2023/04/26 10:54:46;;;;;;;;;;;13.10;99.90;;;;;;5044815;28;20008;-65
2023/04/26 10:57:13;;;;;;;;;;;13.60;99.90;;;;;;5030860;28;19913;-66
2023/04/26 10:59:38;;;;;;;;;;;13.60;99.90;;;;;;5043240;28;19909;-65
2023/04/26 11:02:04;;;;;;;;;;;13.50;99.90;;;;;;5038513;28;19913;-65
2023/04/26 11:04:48;;;;;;;;;;;13.10;99.90;;;;;;5035924;28;20419;-65
2023/04/26 11:07:15;;;;;;;;;;;13.50;99.90;;;;;;5031492;28;19966;-66
2023/04/26 11:09:47;;;;;;;;;;;13.90;99.90;;;;;;5034705;28;19913;-65
2023/04/26 11:12:13;;;;;;;;;;;14.40;99.90;;;;;;5030576;28;20023;-65
2023/04/26 11:14:44;;;;;;;;;;;14.70;99.90;;;;;;5034489;28;19921;-66
2023/04/26 11:17:10;;;;;;;;;;;14.70;99.90;;;;;;5036160;28;19917;-65
2023/04/26 11:19:36;;;;;;;;;;;15.00;99.90;;;;;;5044145;28;20334;-65
2023/04/26 11:22:02;;;;;;;;;;;15.40;99.90;;;;;;5038120;28;20011;-65
2023/04/26 11:24:31;;;;;;;;;;;15.20;99.90;;;;;;5035860;28;19967;-66
2023/04/26 11:26:57;;;;;;;;;;;15.60;99.90;;;;;;5046194;28;19913;-64
2023/04/26 11:29:23;;;;;;;;;;;15.80;99.90;;;;;;5016620;28;20278;-66
2023/04/26 11:31:52;;;;;;;;;;;16.20;99.90;;;;;;5025584;28;19917;-65
2023/04/26 11:34:31;;;;;;;;;;;16.50;99.90;;;;;;5045761;28;19917;-65
2023/04/26 11:36:56;;;;;;;;;;;16.80;99.90;;;;;;5040774;28;19913;-67
2023/04/26 11:39:22;;;;;;;;;;;16.80;99.80;;;;;;5040332;28;19913;-67
2023/04/26 11:41:48;;;;;;;;;;;16.60;97.20;;;;;;5048196;28;19913;-66
2023/04/26 11:44:18;;;;;;;;;;;16.20;95.70;;;;;;5033790;28;19913;-66
2023/04/26 11:46:43;;;;;;;;;;;16.20;97.70;;;;;;5045841;28;19920;-67
2023/04/26 11:49:09;;;;;;;;;;;16.10;99.90;;;;;;5042275;28;20447;-67
2023/04/26 11:51:35;;;;;;;;;;;16.10;99.90;;;;;;5038444;28;19913;-67
2023/04/26 11:57:01;;;;;;;;;;;16.00;98.90;;;;;;5027756;28;19980;-64
2023/04/26 11:59:31;;;;;;;;;;;16.20;99.30;;;;;;5018070;28;19913;-64
2023/04/26 12:01:56;;;;;;;;;;;16.60;99.40;;;;;;5022054;28;19920;-64
2023/04/26 12:04:29;;;;;;;;;;;16.90;99.20;;;;;;5025405;28;19953;-64
2023/04/26 12:06:55;;;;;;;;;;;17.20;99.70;;;;;;5035649;28;19913;-64
2023/04/26 12:09:27;;;;;;;;;;;17.30;94.10;;;;;;5020297;28;19921;-64
2023/04/26 12:11:57;;;;;;;;;;;17.10;92.70;;;;;;5021097;28;19914;-64
2023/04/26 12:14:29;;;;;;;;;;;17.10;92.30;;;;;;5025321;28;20363;-63
2023/04/26 12:16:55;;;;;;;;;;;17.10;93.60;;;;;;5020090;28;19944;-64
2023/04/26 12:19:22;;;;;;;;;;;16.60;95.10;;;;;;5019670;28;19914;-64
2023/04/26 12:21:50;;;;;;;;;;;16.60;97.20;;;;;;5023445;28;20289;-64
2023/04/26 12:24:29;;;;;;;;;;;16.90;96.00;;;;;;5024088;28;19920;-64
2023/04/26 12:26:55;;;;;;;;;;;17.30;94.40;;;;;;5021963;28;19936;-63
2023/04/26 12:29:20;;;;;;;;;;;17.60;90.20;;;;;;5016466;28;20369;-64
2023/04/26 12:31:46;;;;;;;;;;;17.20;90.60;;;;;;5032224;28;19967;-64
2023/04/26 12:34:12;;;;;;;;;;;17.60;91.80;;;;;;5019031;28;19957;-64
2023/04/26 12:36:39;;;;;;;;;;;17.60;90.90;;;;;;5026964;28;19913;-64
2023/04/26 12:39:05;;;;;;;;;;;18.00;90.70;;;;;;5019846;28;19996;-64
2023/04/26 12:41:31;;;;;;;;;;;18.10;86.10;;;;;;5025462;28;19920;-65
2023/04/26 12:43:57;;;;;;;;;;;17.90;86.40;;;;;;5019325;28;19921;-64
2023/04/26 12:46:22;;;;;;;;;;;18.10;84.90;;;;;;5024756;28;19920;-64
2023/04/26 12:48:48;;;;;;;;;;;18.50;81.10;;;;;;5031573;28;19913;-64
2023/04/26 12:51:13;;;;;;;;;;;18.50;80.90;;;;;;5013753;28;19920;-65
2023/04/26 12:53:39;;;;;;;;;;;18.50;81.80;;;;;;5031768;28;19914;-64
2023/04/26 12:56:05;;;;;;;;;;;18.40;78.90;;;;;;5020486;28;19921;-64
2023/04/26 12:58:31;;;;;;;;;;;18.50;82.60;;;;;;5017837;28;20274;-69
2023/04/26 13:00:57;;;;;;;;;;;18.00;78.10;;;;;;5029018;28;19913;-64
2023/04/26 13:03:22;;;;;;;;;;;18.10;79.60;;;;;;5018772;28;19913;-63
2023/04/26 13:05:48;;;;;;;;;;;18.00;80.30;;;;;;5027925;28;19914;-64
2023/04/26 13:08:13;;;;;;;;;;;17.60;83.50;;;;;;5026394;28;19921;-63
2023/04/26 13:10:39;;;;;;;;;;;17.70;89.20;;;;;;5017877;28;20357;-63
2023/04/26 13:13:05;;;;;;;;;;;17.90;86.20;;;;;;5019767;28;19914;-64
2023/04/26 13:15:31;;;;;;;;;;;17.80;86.20;;;;;;5025172;28;19921;-64
2023/04/26 13:17:57;;;;;;;;;;;17.60;88.10;;;;;;5019321;28;20003;-65
2023/04/26 13:20:22;;;;;;;;;;;17.20;85.30;;;;;;5018819;28;19914;-65
2023/04/26 13:22:50;;;;;;;;;;;17.10;85.00;;;;;;5028912;28;19913;-65
2023/04/26 13:25:17;;;;;;;;;;;16.90;90.90;;;;;;5019387;28;19959;-65
2023/04/26 13:27:44;;;;;;;;;;;17.30;90.60;;;;;;5030120;28;19974;-65
2023/04/26 13:30:10;;;;;;;;;;;17.60;88.70;;;;;;5018288;28;19913;-66
2023/04/26 13:32:35;;;;;;;;;;;17.70;88.90;;;;;;5025424;28;19920;-63
2023/04/26 13:35:01;;;;;;;;;;;18.10;89.50;;;;;;5019737;28;19925;-62
2023/04/26 13:37:27;;;;;;;;;;;18.90;82.90;;;;;;5017524;28;19914;-64
2023/04/26 13:39:53;;;;;;;;;;;19.30;75.90;;;;;;5025501;28;19913;-61
2023/04/26 13:42:19;;;;;;;;;;;19.30;77.10;;;;;;5014455;28;20365;-62
2023/04/26 13:44:45;;;;;;;;;;;19.20;75.00;;;;;;5030887;28;20032;-64
2023/04/26 13:47:10;;;;;;;;;;;18.80;75.90;;;;;;5017858;28;20401;-64
2023/04/26 13:49:37;;;;;;;;;;;18.80;78.20;;;;;;5025277;28;19913;-64
2023/04/26 13:52:04;;;;;;;;;;;19.60;76.30;;;;;;5017584;28;20388;-65
2023/04/26 13:54:30;;;;;;;;;;;20.30;73.80;;;;;;5023256;28;20008;-64
2023/04/26 13:56:57;;;;;;;;;;;20.50;69.70;;;;;;5019369;28;19927;-64
2023/04/26 13:59:22;;;;;;;;;;;20.60;66.30;;;;;;5023325;28;19963;-64
2023/04/26 14:01:48;;;;;;;;;;;19.80;68.80;;;;;;5014318;28;20346;-64
2023/04/26 14:04:13;;;;;;;;;;;19.30;69.00;;;;;;5025167;28;19913;-64
2023/04/26 14:06:39;;;;;;;;;;;18.80;68.40;;;;;;5017124;28;19959;-63
2023/04/26 14:09:05;;;;;;;;;;;18.50;74.70;;;;;;5018606;28;19924;-64
2023/04/26 14:11:31;;;;;;;;;;;18.50;72.30;;;;;;5023942;28;19919;-63
2023/04/26 14:13:57;;;;;;;;;;;18.50;70.10;;;;;;5018326;28;20390;-63
2023/04/26 14:16:23;;;;;;;;;;;18.30;72.40;;;;;;5017601;28;20336;-63
2023/04/26 14:18:49;;;;;;;;;;;17.90;76.40;;;;;;5021791;28;19914;-62
2023/04/26 14:21:15;;;;;;;;;;;18.00;77.00;;;;;;5020174;28;20369;-62
2023/04/26 14:23:41;;;;;;;;;;;18.40;78.10;;;;;;5030256;28;19964;-63